Time;durP1;ratioP1;P1;durP2;ratioP2;P2;SDS_P1;SDS_P2;PMS_P1;PMS_P2;Temp;Humidity;BMP_temperature;BMP_pressure;BME280_temperature;BME280_humidity;BME280_pressure;Samples;Min_cycle;Max_cycle;Signal;HPM_P1;HPM_P2
2021/08/13 00:02:29;;;;;;;10.07;6.03;;;19.30;99.90;;;;;;12524683;28;20073;-86
2021/08/13 00:08:31;;;;;;;7.65;5.15;;;18.90;99.90;;;;;;12527030;28;20145;-86
2021/08/13 00:14:33;;;;;;;9.27;5.70;;;18.90;99.90;;;;;;12524657;28;20041;-86
2021/08/13 00:20:36;;;;;;;8.30;5.88;;;18.60;99.90;;;;;;12524326;28;20412;-87
2021/08/13 00:26:38;;;;;;;10.23;5.82;;;18.60;99.90;;;;;;12524691;28;20048;-86
2021/08/13 00:32:39;;;;;;;11.05;5.75;;;18.60;99.90;;;;;;12519118;28;20045;-86
2021/08/13 00:38:41;;;;;;;8.98;5.25;;;18.50;99.90;;;;;;12529960;28;20056;-86
2021/08/13 00:44:43;;;;;;;10.23;5.43;;;18.50;99.90;;;;;;12530211;28;20053;-86
2021/08/13 00:50:45;;;;;;;7.28;4.70;;;18.30;99.90;;;;;;12528579;28;20052;-86
2021/08/13 00:56:47;;;;;;;7.72;5.40;;;18.30;99.90;;;;;;12533401;28;20090;-86
2021/08/13 01:02:50;;;;;;;10.32;6.57;;;18.10;99.90;;;;;;12535075;28;20049;-86
2021/08/13 01:08:53;;;;;;;10.30;5.70;;;18.00;99.90;;;;;;12533502;28;20140;-86
2021/08/13 01:15:07;;;;;;;10.82;6.28;;;18.00;99.90;;;;;;12532242;28;20041;-87
2021/08/13 01:21:20;;;;;;;9.93;5.72;;;17.80;99.90;;;;;;12519309;28;20572;-86
2021/08/13 01:27:32;;;;;;;9.52;5.78;;;18.00;99.90;;;;;;12535009;28;20049;-86
2021/08/13 01:33:34;;;;;;;10.15;5.90;;;17.80;99.90;;;;;;12524991;28;20538;-86
2021/08/13 01:39:37;;;;;;;10.18;6.43;;;17.80;99.90;;;;;;12530647;28;20053;-86
2021/08/13 01:45:39;;;;;;;12.43;6.65;;;17.90;99.90;;;;;;12535903;28;20041;-86
2021/08/13 01:51:43;;;;;;;9.55;6.82;;;17.80;99.90;;;;;;12519936;28;20045;-86
2021/08/13 01:57:45;;;;;;;10.73;8.00;;;17.90;99.90;;;;;;12532304;28;20131;-86
2021/08/13 02:03:48;;;;;;;13.80;7.63;;;17.80;99.90;;;;;;12516404;28;20045;-86
2021/08/13 02:09:50;;;;;;;8.93;6.93;;;17.70;99.90;;;;;;12530102;28;20064;-86
2021/08/13 02:16:09;;;;;;;9.85;6.90;;;17.70;99.90;;;;;;12529219;28;20593;-86
2021/08/13 02:22:11;;;;;;;9.90;7.35;;;17.70;99.90;;;;;;12528123;28;20041;-86
2021/08/13 02:28:13;;;;;;;13.38;7.25;;;17.60;99.90;;;;;;12542575;28;20060;-86
2021/08/13 02:34:15;;;;;;;14.05;8.00;;;17.60;99.90;;;;;;12530513;28;20485;-86
2021/08/13 02:40:26;;;;;;;13.27;8.07;;;17.50;99.90;;;;;;12562325;28;20113;-86
2021/08/13 02:46:34;;;;;;;10.98;7.13;;;17.50;99.90;;;;;;12535553;28;20057;-86
2021/08/13 02:52:50;;;;;;;13.05;7.93;;;17.50;99.90;;;;;;12535800;28;20061;-86
2021/08/13 02:58:56;;;;;;;13.30;7.25;;;17.30;99.90;;;;;;12529559;28;20061;-86
2021/08/13 03:05:00;;;;;;;11.13;8.43;;;17.30;99.90;;;;;;12529836;28;20432;-85
2021/08/13 03:11:04;;;;;;;15.17;8.93;;;17.30;99.90;;;;;;12529714;28;20159;-86
2021/08/13 03:17:07;;;;;;;10.55;8.38;;;17.30;99.90;;;;;;12528330;28;20040;-86
2021/08/13 03:23:09;;;;;;;12.98;7.95;;;17.40;99.90;;;;;;12514645;28;20919;-86
2021/08/13 03:29:11;;;;;;;13.98;7.72;;;17.30;99.90;;;;;;12529427;28;20095;-86
2021/08/13 03:35:15;;;;;;;11.48;8.05;;;17.30;99.90;;;;;;12522597;28;20048;-86
2021/08/13 03:41:17;;;;;;;13.03;8.50;;;17.20;99.90;;;;;;12516656;28;20549;-86
2021/08/13 03:47:19;;;;;;;11.95;8.50;;;17.20;99.90;;;;;;12530118;28;20102;-86
2021/08/13 03:53:21;;;;;;;15.45;8.93;;;17.20;99.90;;;;;;12522149;28;20056;-86
2021/08/13 03:59:23;;;;;;;16.00;8.70;;;17.20;99.90;;;;;;12524391;28;20094;-86
2021/08/13 04:05:30;;;;;;;11.30;8.87;;;17.30;99.90;;;;;;12525095;28;20124;-86
2021/08/13 04:11:32;;;;;;;14.55;9.27;;;17.20;99.90;;;;;;12523517;28;20124;-86
2021/08/13 04:17:33;;;;;;;13.48;9.35;;;17.10;99.90;;;;;;12530420;28;20045;-85
2021/08/13 04:23:35;;;;;;;15.60;10.52;;;17.00;99.90;;;;;;12518412;28;20045;-86
2021/08/13 04:29:37;;;;;;;15.07;10.18;;;17.00;99.90;;;;;;12530295;28;20048;-86
2021/08/13 04:35:41;;;;;;;14.98;9.57;;;17.00;99.90;;;;;;12525265;28;20052;-86
2021/08/13 04:41:42;;;;;;;13.48;10.40;;;17.00;99.90;;;;;;12531316;28;20375;-86
2021/08/13 04:47:44;;;;;;;13.95;9.88;;;16.80;99.90;;;;;;12532030;28;20060;-87
2021/08/13 04:53:46;;;;;;;17.95;9.85;;;16.90;99.90;;;;;;12534683;28;20508;-87
2021/08/13 04:59:49;;;;;;;14.60;9.10;;;17.00;99.90;;;;;;12530786;28;20040;-86
2021/08/13 05:05:51;;;;;;;16.83;9.93;;;17.00;99.90;;;;;;12544704;28;20052;-86
2021/08/13 05:11:53;;;;;;;13.73;10.05;;;17.00;99.90;;;;;;12542773;28;20097;-87
2021/08/13 05:17:55;;;;;;;16.15;10.43;;;17.10;99.90;;;;;;12551977;28;20068;-87
2021/08/13 05:23:57;;;;;;;15.48;10.68;;;17.10;99.90;;;;;;12550722;28;20179;-86
2021/08/13 05:29:59;;;;;;;17.15;10.25;;;17.30;99.90;;;;;;12535494;28;20049;-86
2021/08/13 05:36:00;;;;;;;15.68;10.20;;;17.20;99.90;;;;;;12542684;28;20052;-86
2021/08/13 05:42:03;;;;;;;15.13;10.55;;;17.30;99.90;;;;;;12542339;28;21039;-86
2021/08/13 05:48:05;;;;;;;14.98;9.20;;;17.50;99.90;;;;;;12552703;28;20136;-86
2021/08/13 05:54:07;;;;;;;12.70;9.40;;;17.50;99.90;;;;;;12549552;28;20060;-87
2021/08/13 06:00:09;;;;;;;11.52;8.93;;;17.50;99.90;;;;;;12554307;28;20159;-86
2021/08/13 06:06:11;;;;;;;13.73;8.85;;;17.60;99.90;;;;;;12559955;28;20126;-87
2021/08/13 06:12:13;;;;;;;13.82;8.60;;;17.80;99.90;;;;;;12555867;28;20202;-86
2021/08/13 06:18:14;;;;;;;14.55;9.52;;;17.90;99.90;;;;;;12561877;28;20092;-86
2021/08/13 06:24:16;;;;;;;14.52;8.95;;;17.90;99.90;;;;;;12562149;28;20161;-86
2021/08/13 06:30:21;;;;;;;14.50;8.48;;;18.00;99.90;;;;;;12556687;28;20071;-86
2021/08/13 06:36:23;;;;;;;15.45;8.02;;;18.10;99.90;;;;;;12558729;28;20128;-86
2021/08/13 06:42:25;;;;;;;15.10;8.48;;;18.20;99.90;;;;;;12561832;28;20041;-87
2021/08/13 06:48:26;;;;;;;13.48;8.75;;;18.40;99.90;;;;;;12570445;28;20131;-86
2021/08/13 06:54:28;;;;;;;12.10;8.02;;;18.60;99.90;;;;;;12569394;28;20057;-84
2021/08/13 07:00:30;;;;;;;12.65;8.63;;;18.70;99.90;;;;;;12562571;28;20082;-86
2021/08/13 07:06:32;;;;;;;11.35;8.38;;;18.80;99.90;;;;;;12582094;28;20088;-87
2021/08/13 07:12:34;;;;;;;15.15;9.40;;;19.10;99.90;;;;;;12564858;28;20107;-87
2021/08/13 07:18:36;;;;;;;13.10;8.18;;;19.10;99.90;;;;;;12558516;28;20067;-86
2021/08/13 07:24:38;;;;;;;11.88;8.27;;;19.30;99.90;;;;;;12554397;28;20052;-87
2021/08/13 07:30:40;;;;;;;12.68;8.60;;;19.40;99.90;;;;;;12557246;28;20138;-86
2021/08/13 07:36:41;;;;;;;13.80;8.98;;;19.60;99.90;;;;;;12546864;28;20133;-86
2021/08/13 07:42:43;;;;;;;13.40;8.55;;;19.90;99.90;;;;;;12554273;28;20087;-86
2021/08/13 07:48:45;;;;;;;13.10;8.43;;;20.00;99.90;;;;;;12545161;28;20064;-86
2021/08/13 07:54:47;;;;;;;13.55;8.55;;;20.20;99.90;;;;;;12545902;28;20083;-86
2021/08/13 08:00:49;;;;;;;11.35;7.28;;;20.40;99.90;;;;;;12549775;28;20045;-86
2021/08/13 08:06:56;;;;;;;9.77;6.50;;;20.60;99.90;;;;;;12541168;28;20060;-87
2021/08/13 08:12:58;;;;;;;11.63;6.57;;;20.80;99.90;;;;;;12546703;28;20685;-87
2021/08/13 08:19:00;;;;;;;11.07;5.32;;;21.00;99.90;;;;;;12538093;28;20112;-86
2021/08/13 08:25:04;;;;;;;8.18;5.60;;;21.70;99.90;;;;;;12537533;28;20416;-86
2021/08/13 08:31:06;;;;;;;8.75;5.53;;;22.50;99.90;;;;;;12528859;28;20041;-87
2021/08/13 08:37:12;;;;;;;8.27;5.30;;;22.90;99.90;;;;;;12528040;28;20106;-87
2021/08/13 08:43:13;;;;;;;7.75;5.15;;;23.20;99.90;;;;;;12527651;28;20067;-87
2021/08/13 08:49:18;;;;;;;7.93;5.35;;;23.30;99.90;;;;;;12523785;28;20053;-86
2021/08/13 08:55:20;;;;;;;10.45;5.50;;;23.70;99.90;;;;;;12530691;28;20129;-87
2021/08/13 09:01:25;;;;;;;9.07;5.47;;;23.90;99.90;;;;;;12538338;28;20045;-87
2021/08/13 09:07:28;;;;;;;7.10;5.20;;;24.00;99.90;;;;;;12522808;28;20144;-87
2021/08/13 09:13:32;;;;;;;8.67;5.67;;;24.10;99.90;;;;;;12529436;28;20157;-87
2021/08/13 09:19:48;;;;;;;7.50;5.15;;;24.30;99.90;;;;;;12539440;28;20125;-87
2021/08/13 09:25:57;;;;;;;6.95;5.07;;;24.50;99.90;;;;;;12526830;28;20056;-88
2021/08/13 09:31:59;;;;;;;8.15;5.50;;;24.60;99.90;;;;;;12540755;28;20118;-86
2021/08/13 09:38:13;;;;;;;9.35;5.75;;;24.70;99.90;;;;;;12530122;28;20057;-87
2021/08/13 09:44:30;;;;;;;9.00;6.07;;;24.90;99.90;;;;;;12534448;28;20088;-86
2021/08/13 09:50:34;;;;;;;11.02;6.07;;;25.10;99.90;;;;;;12537956;28;20053;-88
2021/08/13 09:56:40;;;;;;;11.52;6.72;;;25.00;99.90;;;;;;12551933;28;20053;-87
2021/08/13 10:02:44;;;;;;;9.75;6.35;;;25.00;99.90;;;;;;12568148;28;20049;-88
2021/08/13 10:08:46;;;;;;;12.10;6.28;;;25.30;99.90;;;;;;12558373;28;20052;-87
2021/08/13 10:14:56;;;;;;;13.23;6.13;;;25.70;99.90;;;;;;12546792;28;20048;-86
2021/08/13 10:20:59;;;;;;;10.02;6.38;;;25.80;99.90;;;;;;12542897;28;20068;-86
2021/08/13 10:27:02;;;;;;;9.27;6.25;;;26.20;99.90;;;;;;12553215;28;20053;-87
2021/08/13 10:33:07;;;;;;;11.27;6.20;;;26.50;99.90;;;;;;12548309;28;20187;-88
2021/08/13 10:39:12;;;;;;;11.52;5.65;;;26.60;99.90;;;;;;12538320;28;20049;-87
2021/08/13 10:45:20;;;;;;;8.82;6.15;;;26.90;99.90;;;;;;12532652;28;20071;-87
2021/08/13 10:51:27;;;;;;;9.00;6.05;;;26.80;99.90;;;;;;12531815;28;20128;-88
2021/08/13 10:57:47;;;;;;;11.43;6.95;;;26.90;99.90;;;;;;12543306;28;20214;-88
2021/08/13 11:03:53;;;;;;;9.23;6.10;;;27.00;99.90;;;;;;12548419;28;20052;-87
2021/08/13 11:09:54;;;;;;;11.50;6.53;;;27.30;99.90;;;;;;12541789;28;20218;-87
2021/08/13 11:15:57;;;;;;;13.77;7.13;;;27.30;99.90;;;;;;12532469;28;21750;-87
2021/08/13 11:22:00;;;;;;;;;;;27.40;99.90;;;;;;12530347;28;20041;-86
2021/08/13 11:28:20;;;;;;;10.77;7.40;;;27.00;99.90;;;;;;12524944;28;19960;-88
2021/08/13 11:34:52;;;;;;;13.32;7.22;;;27.50;99.90;;;;;;12531386;28;20041;-87
2021/08/13 11:40:54;;;;;;;11.23;7.27;;;27.20;99.90;;;;;;12477425;28;20158;-87
2021/08/13 11:46:57;;;;;;;19.00;8.18;;;26.90;99.90;;;;;;12537827;28;20329;-86
2021/08/13 11:52:59;;;;;;;16.98;7.32;;;26.90;99.90;;;;;;12533053;28;20504;-88
2021/08/13 11:59:04;;;;;;;10.82;6.95;;;26.90;99.90;;;;;;12541431;28;20092;-88
2021/08/13 12:05:08;;;;;;;13.05;7.15;;;27.10;99.90;;;;;;12543798;28;20060;-87
2021/08/13 12:11:10;;;;;;;10.73;7.65;;;27.50;99.90;;;;;;12533166;28;20098;-86
2021/08/13 12:17:13;;;;;;;12.88;7.70;;;27.50;99.90;;;;;;12535880;28;20759;-86
2021/08/13 12:23:17;;;;;;;11.32;8.18;;;27.10;99.90;;;;;;12532836;28;20901;-86
2021/08/13 12:29:30;;;;;;;13.00;7.93;;;26.90;99.90;;;;;;12536600;28;20145;-85
2021/08/13 12:35:37;;;;;;;10.27;7.20;;;26.70;99.90;;;;;;12535501;28;20087;-86
2021/08/13 12:41:39;;;;;;;10.20;7.93;;;26.30;99.90;;;;;;12525110;28;20049;-86
2021/08/13 12:47:48;;;;;;;13.50;7.88;;;26.20;99.90;;;;;;12555179;28;20052;-87
2021/08/13 12:53:50;;;;;;;12.35;8.07;;;26.10;99.90;;;;;;12540236;28;20052;-86
2021/08/13 13:00:10;;;;;;;12.50;8.25;;;26.00;99.90;;;;;;12535532;28;20172;-87
2021/08/13 13:06:12;;;;;;;12.30;7.95;;;25.90;99.90;;;;;;12551184;28;20083;-86
2021/08/13 13:12:22;;;;;;;11.02;7.53;;;25.80;99.90;;;;;;12548597;28;20045;-86
2021/08/13 13:18:25;;;;;;;11.73;7.97;;;25.90;99.90;;;;;;12560248;28;20515;-86
2021/08/13 13:24:32;;;;;;;17.13;9.05;;;26.10;99.90;;;;;;12551256;28;20671;-85
2021/08/13 13:30:47;;;;;;;12.98;8.23;;;25.90;99.90;;;;;;12527082;28;20136;-85
2021/08/13 13:36:48;;;;;;;14.52;7.88;;;25.80;99.90;;;;;;12541187;28;20057;-85
2021/08/13 13:42:50;;;;;;;14.10;8.70;;;25.90;99.90;;;;;;12535815;28;20040;-86
2021/08/13 13:48:52;;;;;;;14.40;8.97;;;26.10;99.90;;;;;;12533612;28;20509;-85
2021/08/13 13:54:54;;;;;;;14.50;9.80;;;26.20;99.90;;;;;;12529891;28;20318;-85
2021/08/13 14:00:56;;;;;;;12.02;8.80;;;26.10;99.90;;;;;;12535216;28;20049;-85
2021/08/13 14:06:59;;;;;;;12.80;8.77;;;25.70;99.90;;;;;;12529170;28;20053;-85
2021/08/13 14:13:02;;;;;;;14.82;8.57;;;25.80;99.90;;;;;;12533359;28;20451;-85
2021/08/13 14:19:05;;;;;;;9.32;6.45;;;25.90;99.90;;;;;;12526525;28;20397;-84
2021/08/13 14:25:16;;;;;;;10.70;6.13;;;25.80;99.90;;;;;;12533907;28;20071;-85
2021/08/13 14:31:17;;;;;;;9.80;6.43;;;25.50;99.90;;;;;;12536046;28;20845;-84
2021/08/13 14:37:22;;;;;;;8.02;5.40;;;25.40;99.90;;;;;;12536113;28;20051;-85
2021/08/13 14:43:25;;;;;;;8.82;5.07;;;25.50;99.90;;;;;;12547697;28;20107;-87
2021/08/13 14:49:27;;;;;;;8.00;4.13;;;25.80;99.90;;;;;;12571328;28;20049;-86
2021/08/13 14:55:29;;;;;;;8.27;3.93;;;25.80;99.90;;;;;;12534422;28;20068;-86
2021/08/13 15:01:31;;;;;;;6.72;3.60;;;25.50;99.90;;;;;;12543652;28;20091;-85
2021/08/13 15:07:33;;;;;;;5.33;3.10;;;25.80;99.90;;;;;;12535506;28;20063;-86
2021/08/13 15:13:35;;;;;;;6.80;2.60;;;25.90;99.90;;;;;;12532496;28;20041;-85
2021/08/13 15:19:37;;;;;;;3.00;1.90;;;26.00;99.90;;;;;;12541338;28;20053;-85
2021/08/13 15:25:39;;;;;;;3.35;2.00;;;25.50;99.90;;;;;;12538968;28;20259;-85
2021/08/13 15:31:42;;;;;;;4.60;1.90;;;25.30;99.90;;;;;;12543365;28;20044;-84
2021/08/13 15:37:45;;;;;;;2.80;1.52;;;25.00;99.90;;;;;;12555981;28;20053;-85
2021/08/13 15:43:47;;;;;;;4.68;1.63;;;24.90;99.90;;;;;;12537960;28;20641;-85
2021/08/13 15:50:08;;;;;;;5.72;1.40;;;24.90;99.90;;;;;;12539031;28;20087;-85
2021/08/13 15:56:10;;;;;;;3.42;1.88;;;24.70;99.90;;;;;;12528601;28;20474;-83
2021/08/13 16:02:12;;;;;;;3.60;2.08;;;24.50;99.90;;;;;;12536579;28;20072;-85
2021/08/13 16:08:14;;;;;;;4.50;1.90;;;24.40;99.90;;;;;;12530947;28;20591;-84
2021/08/13 16:14:16;;;;;;;3.90;2.00;;;24.40;99.90;;;;;;12527369;28;20044;-85
2021/08/13 16:20:19;;;;;;;5.90;2.30;;;24.40;99.90;;;;;;12528452;28;20622;-87
2021/08/13 16:26:21;;;;;;;5.65;2.92;;;23.90;99.90;;;;;;12537708;28;20726;-84
2021/08/13 16:32:23;;;;;;;9.30;3.15;;;23.70;99.90;;;;;;12537929;28;20045;-84
2021/08/13 16:38:24;;;;;;;6.72;3.75;;;23.50;99.90;;;;;;12539990;28;20077;-83
2021/08/13 16:44:28;;;;;;;7.63;3.30;;;23.30;99.90;;;;;;12534689;28;20044;-84
2021/08/13 16:50:30;;;;;;;7.60;3.30;;;23.30;99.90;;;;;;12552514;28;20076;-85
2021/08/13 16:56:33;;;;;;;11.05;3.47;;;23.20;99.90;;;;;;12558647;28;20561;-85
2021/08/13 17:02:36;;;;;;;9.17;3.87;;;23.10;99.90;;;;;;12541107;28;20061;-83
2021/08/13 17:08:39;;;;;;;5.70;3.28;;;22.70;99.90;;;;;;12543298;28;20057;-85
2021/08/13 17:14:40;;;;;;;7.43;3.38;;;22.70;99.90;;;;;;12538797;28;20110;-84
2021/08/13 17:20:43;;;;;;;5.65;3.22;;;22.50;99.90;;;;;;12545188;28;20135;-85
2021/08/13 17:26:45;;;;;;;8.32;3.25;;;22.40;99.90;;;;;;12539316;28;20049;-85
2021/08/13 17:32:47;;;;;;;6.80;3.78;;;22.40;99.90;;;;;;12541792;28;20056;-85
2021/08/13 17:38:49;;;;;;;6.13;3.10;;;22.30;99.90;;;;;;12545717;28;20048;-84
2021/08/13 17:44:51;;;;;;;8.13;3.22;;;22.20;99.90;;;;;;12541216;28;20070;-85
2021/08/13 17:50:53;;;;;;;7.18;2.97;;;22.10;99.90;;;;;;12540725;28;20322;-84
2021/08/13 17:56:55;;;;;;;9.13;3.03;;;22.10;99.90;;;;;;12545666;28;20098;-84
2021/08/13 18:02:56;;;;;;;8.07;3.38;;;21.90;99.90;;;;;;12540411;28;20048;-85
2021/08/13 18:08:58;;;;;;;7.43;3.15;;;21.90;99.90;;;;;;12544480;28;20102;-84
2021/08/13 18:15:00;;;;;;;5.75;3.08;;;21.80;99.90;;;;;;12539310;28;20040;-84
2021/08/13 18:21:03;;;;;;;7.03;3.47;;;21.70;99.90;;;;;;12537274;28;20461;-85
2021/08/13 18:27:05;;;;;;;10.10;3.03;;;21.70;99.90;;;;;;12546796;28;20053;-85
2021/08/13 18:33:12;;;;;;;7.10;3.38;;;21.50;99.90;;;;;;12540024;28;20299;-84
2021/08/13 18:39:14;;;;;;;7.75;3.03;;;21.50;99.90;;;;;;12572815;28;20524;-85
2021/08/13 18:45:16;;;;;;;8.52;3.50;;;21.40;99.90;;;;;;12525758;28;20064;-84
2021/08/13 18:51:18;;;;;;;7.00;3.15;;;21.40;99.90;;;;;;12531242;28;20040;-84
2021/08/13 18:57:20;;;;;;;6.32;2.83;;;21.40;99.90;;;;;;12536758;28;20095;-85
2021/08/13 19:03:25;;;;;;;4.72;2.90;;;21.30;99.90;;;;;;12527333;28;20045;-85
2021/08/13 19:09:27;;;;;;;6.60;3.30;;;21.20;99.90;;;;;;12539478;28;20057;-84
2021/08/13 19:15:29;;;;;;;16.10;4.47;;;20.90;99.90;;;;;;12526364;28;20044;-84
2021/08/13 19:21:31;;;;;;;13.50;3.88;;;20.50;99.90;;;;;;12526386;28;20164;-85
2021/08/13 19:27:33;;;;;;;9.60;3.83;;;20.50;99.90;;;;;;12513697;28;20062;-84
2021/08/13 19:33:35;;;;;;;22.83;4.75;;;20.50;99.90;;;;;;12524948;28;20076;-84
2021/08/13 19:39:37;;;;;;;16.13;5.82;;;20.30;99.90;;;;;;12524090;28;20049;-84
2021/08/13 19:45:39;;;;;;;11.82;3.80;;;20.20;99.90;;;;;;12501719;28;20097;-84
2021/08/13 19:51:40;;;;;;;9.75;3.42;;;20.30;99.90;;;;;;12524206;28;20083;-84
2021/08/13 19:57:42;;;;;;;11.07;3.72;;;20.40;99.90;;;;;;12534954;28;20094;-84
2021/08/13 20:03:44;;;;;;;6.10;3.05;;;20.30;99.90;;;;;;12530838;28;20079;-84
2021/08/13 20:09:46;;;;;;;10.38;3.70;;;20.20;99.90;;;;;;12535791;28;20064;-85
2021/08/13 20:15:48;;;;;;;8.30;2.88;;;20.20;99.90;;;;;;12535122;28;20071;-84
2021/08/13 20:21:50;;;;;;;7.53;2.78;;;20.10;99.90;;;;;;12529653;28;20059;-84
2021/08/13 20:27:52;;;;;;;9.38;3.40;;;19.90;99.90;;;;;;12533784;28;20489;-84
2021/08/13 20:33:54;;;;;;;8.57;2.78;;;19.90;99.90;;;;;;12544107;28;20045;-84
2021/08/13 20:39:56;;;;;;;7.05;2.80;;;19.90;99.90;;;;;;12534911;28;20106;-83
2021/08/13 20:45:58;;;;;;;6.40;2.30;;;19.90;99.90;;;;;;12538970;28;20040;-84
2021/08/13 20:52:00;;;;;;;6.03;2.50;;;19.80;99.90;;;;;;12527699;28;20405;-85
2021/08/13 20:58:01;;;;;;;5.90;2.50;;;19.80;99.90;;;;;;12535588;28;20041;-84
2021/08/13 21:04:03;;;;;;;7.75;2.25;;;19.80;99.90;;;;;;12527696;28;20102;-84
2021/08/13 21:10:06;;;;;;;7.68;2.47;;;19.70;99.90;;;;;;12538859;28;20056;-84
2021/08/13 21:16:08;;;;;;;5.28;2.08;;;19.60;99.90;;;;;;12537305;28;20053;-84
2021/08/13 21:22:09;;;;;;;7.13;2.50;;;19.60;99.90;;;;;;12548356;28;20049;-85
2021/08/13 21:28:12;;;;;;;5.25;2.25;;;19.60;99.90;;;;;;12550030;28;20057;-84
2021/08/13 21:34:13;;;;;;;16.98;4.43;;;19.40;99.90;;;;;;12544763;28;20045;-84
2021/08/13 21:40:15;;;;;;;15.32;3.70;;;19.00;99.90;;;;;;12573922;28;20056;-84
2021/08/13 21:46:18;;;;;;;7.20;2.78;;;18.80;99.90;;;;;;12546902;28;20049;-84
2021/08/13 21:52:20;;;;;;;10.32;2.45;;;18.80;99.90;;;;;;12531847;28;20771;-84
2021/08/13 21:58:21;;;;;;;8.25;2.90;;;18.80;99.90;;;;;;12535147;28;20061;-84
2021/08/13 22:04:23;;;;;;;8.88;2.42;;;18.60;99.90;;;;;;12536422;28;20134;-84
2021/08/13 22:10:25;;;;;;;7.28;2.90;;;18.60;99.90;;;;;;12535137;28;20065;-84
2021/08/13 22:16:32;;;;;;;6.18;2.33;;;18.40;99.90;;;;;;12528474;28;20629;-84
2021/08/13 22:22:34;;;;;;;11.20;2.60;;;18.20;99.90;;;;;;12528869;28;20075;-84
2021/08/13 22:28:36;;;;;;;7.07;2.10;;;18.10;99.90;;;;;;12538657;28;20056;-84
2021/08/13 22:34:38;;;;;;;10.75;2.10;;;18.10;99.90;;;;;;12535660;28;20048;-84
2021/08/13 22:40:41;;;;;;;9.68;2.95;;;18.10;99.90;;;;;;12538252;28;20052;-84
2021/08/13 22:46:43;;;;;;;12.88;2.85;;;18.00;99.90;;;;;;12540764;28;20042;-84
2021/08/13 22:52:45;;;;;;;12.95;2.15;;;17.90;99.90;;;;;;12532597;28;20944;-84
2021/08/13 22:58:48;;;;;;;9.77;2.38;;;18.00;99.90;;;;;;12531493;28;20473;-84
2021/08/13 23:04:50;;;;;;;6.40;2.20;;;17.80;99.90;;;;;;12536662;28;20052;-86
2021/08/13 23:10:52;;;;;;;7.75;2.40;;;17.80;99.90;;;;;;12525682;28;20045;-83
2021/08/13 23:16:54;;;;;;;9.05;2.63;;;17.50;99.90;;;;;;12538420;28;20578;-84
2021/08/13 23:22:55;;;;;;;8.98;2.63;;;17.50;99.90;;;;;;12539622;28;20151;-85
2021/08/13 23:28:57;;;;;;;5.93;2.28;;;17.60;99.90;;;;;;12542163;28;20555;-85
2021/08/13 23:34:59;;;;;;;11.68;2.60;;;17.50;99.90;;;;;;12527419;28;20079;-85
2021/08/13 23:41:03;;;;;;;11.63;2.70;;;17.40;99.90;;;;;;12536995;28;20041;-85
2021/08/13 23:47:05;;;;;;;9.88;2.50;;;17.40;99.90;;;;;;12541693;28;20481;-84
2021/08/13 23:53:07;;;;;;;7.53;2.15;;;17.40;99.90;;;;;;12537123;28;20625;-84
2021/08/13 23:59:08;;;;;;;8.00;2.42;;;17.50;99.90;;;;;;12532324;28;20614;-85
